| Date | Time | Temp. (oF) | Dew Point (oF) | Rel. Hum. (%) | Press. (in.) | Wind Dir. | Wind Speed (mph) | Hourly Rainfall (in.) |
|
|---|---|---|---|---|---|---|---|---|---|
| 1 | 12/11 | 00:00 | 50 | 50 | 100 | 29.68 | S | 8 | 0.00 |
| 2 | 12/10 | 23:00 | 51 | 50 | 100 | 29.63 | N | 9 | 0.00 |
| 3 | 12/10 | 22:00 | 52 | 51 | 100 | 29.59 | NW | 0 | 0.00 |
| 4 | 12/10 | 21:00 | 52 | 51 | 100 | 29.59 | NNE | 2 | 0.00 |
| 5 | 12/10 | 20:00 | 52 | 51 | 100 | 29.58 | SE | 3 | 0.00 |
| 6 | 12/10 | 19:00 | 52 | 51 | 100 | 29.61 | NW | 2 | 0.00 |
| 7 | 12/10 | 18:00 | 53 | 53 | 100 | 29.59 | SE | 2 | 0.00 |
| 8 | 12/10 | 17:00 | 54 | 54 | 100 | 29.60 | NW | 6 | 0.00 |
| 9 | 12/10 | 16:00 | 54 | 54 | 100 | 29.61 | W | 2 | 0.00 |
| 10 | 12/10 | 15:00 | 54 | 54 | 100 | 29.62 | NE | 2 | 0.00 |
| 11 | 12/10 | 14:00 | 57 | 57 | 100 | 29.64 | SSW | 2 | 0.00 |
| 12 | 12/10 | 13:00 | 57 | 57 | 100 | 29.66 | SSW | 8 | 0.00 |
| 13 | 12/10 | 12:00 | 53 | 53 | 100 | 29.71 | SW | 4 | 0.00 |
| 14 | 12/10 | 11:00 | 52 | 51 | 100 | 29.74 | SSW | 4 | 0.00 |
| 15 | 12/10 | 10:00 | 49 | 49 | 100 | 29.78 | ESE | 0 | 0.00 |
| 16 | 12/10 | 09:00 | 46 | 45 | 100 | 29.78 | S | 0 | 0.00 |
| 17 | 12/10 | 08:00 | 44 | 44 | 100 | 29.79 | SW | 0 | 0.00 |
| 18 | 12/10 | 07:00 | 43 | 42 | 100 | 29.80 | SSE | 0 | 0.00 |
| 19 | 12/10 | 06:00 | 42 | 41 | 100 | 29.83 | NNE | 0 | 0.00 |
| 20 | 12/10 | 05:00 | 41 | 41 | 100 | 29.86 | NNE | 0 | 0.00 |
| 21 | 12/10 | 04:00 | 41 | 41 | 100 | 29.89 | ENE | 0 | 0.00 |
| 22 | 12/10 | 03:00 | 41 | 41 | 100 | 29.92 | SE | 2 | 0.00 |
| 23 | 12/10 | 02:00 | 41 | 41 | 100 | 29.94 | SE | 0 | 0.00 |
| 24 | 12/10 | 01:00 | 41 | 41 | 100 | 29.97 | ENE | 4 | 0.00 |